Terminal Aerodrome Forecast
Issued by NWS Greer, SC

Home | Current Version | Previous Version | Text Only | Print | Product List | Glossary On
Versions: 1 2 3 4 5 6 7 8 9 10 11 12 13 14 15 16 17 18 19 20 21 22 23 24
000
FTUS42 KGSP 280853 AAB
TAFCLT
TAF AMD
KCLT 280853Z 2809/2906 24007KT P6SM -SHRA SCT020 OVC035
     FM281100 21007KT P6SM VCSH OVC015
     FM281400 22008KT P6SM BKN040
     FM281600 24009G16KT P6SM VCSH BKN060 PROB30 2818/2821 TSRA
      OVC040CB
     FM290000 28007KT P6SM FEW060=

USA.gov is the U.S. government's official web portal to all federal, state and local government web resources and services.